Time;durP1;ratioP1;P1;durP2;ratioP2;P2;SDS_P1;SDS_P2;PMS_P1;PMS_P2;Temp;Humidity;BMP_temperature;BMP_pressure;BME280_temperature;BME280_humidity;BME280_pressure;Samples;Min_cycle;Max_cycle;Signal;HPM_P1;HPM_P2
2022/10/19 00:01:18;;;;;;;10.97;7.77;;;11.80;99.90;;;;;;5033337;28;20437;-72
2022/10/19 00:03:47;;;;;;;13.40;7.20;;;11.90;99.90;;;;;;5033381;28;20433;-72
2022/10/19 00:06:12;;;;;;;7.73;7.17;;;12.00;99.90;;;;;;5032748;28;20463;-71
2022/10/19 00:08:38;;;;;;;7.67;7.10;;;12.00;99.90;;;;;;5033514;28;20473;-74
2022/10/19 00:11:04;;;;;;;8.10;6.70;;;12.10;99.90;;;;;;5033755;28;20197;-71
2022/10/19 00:13:30;;;;;;;8.07;7.27;;;12.10;99.90;;;;;;5033238;28;20405;-72
2022/10/19 00:15:55;;;;;;;8.60;7.67;;;12.10;99.90;;;;;;5014760;28;21022;-72
2022/10/19 00:18:21;;;;;;;7.43;6.90;;;12.20;99.90;;;;;;5033036;28;20191;-72
2022/10/19 00:20:47;;;;;;;9.63;7.73;;;12.30;99.90;;;;;;5014764;28;20201;-72
2022/10/19 00:23:13;;;;;;;15.33;7.90;;;12.30;99.90;;;;;;5032848;28;20654;-71
2022/10/19 00:25:38;;;;;;;10.63;7.73;;;12.30;99.90;;;;;;5031440;28;20623;-74
2022/10/19 00:28:04;;;;;;;9.03;8.17;;;12.40;99.90;;;;;;5031951;28;20189;-71
2022/10/19 00:30:30;;;;;;;12.07;7.80;;;12.50;99.90;;;;;;5032366;28;20260;-71
2022/10/19 00:32:56;;;;;;;8.10;7.43;;;12.50;99.90;;;;;;5031973;28;20194;-71
2022/10/19 00:35:21;;;;;;;8.57;7.87;;;12.50;99.90;;;;;;5032196;28;20480;-72
2022/10/19 00:37:47;;;;;;;8.30;7.53;;;12.40;99.90;;;;;;5032390;28;20171;-71
2022/10/19 00:40:13;;;;;;;9.53;7.50;;;12.50;99.90;;;;;;5032776;28;20224;-71
2022/10/19 00:42:38;;;;;;;23.17;7.43;;;12.40;99.90;;;;;;5031662;28;20537;-73
2022/10/19 00:45:12;;;;;;;18.03;7.40;;;12.30;99.90;;;;;;5031886;28;20547;-71
2022/10/19 00:47:38;;;;;;;15.77;7.63;;;12.20;99.90;;;;;;5032069;28;20194;-71
2022/10/19 00:50:04;;;;;;;9.30;8.40;;;12.20;99.90;;;;;;5032098;28;20467;-71
2022/10/19 00:52:30;;;;;;;13.83;8.00;;;12.10;99.90;;;;;;5031847;28;20448;-71
2022/10/19 00:54:57;;;;;;;27.27;7.77;;;12.20;99.90;;;;;;5030601;28;20428;-71
2022/10/19 00:57:27;;;;;;;8.40;7.70;;;12.20;99.90;;;;;;5031533;28;20429;-71
2022/10/19 00:59:54;;;;;;;8.37;7.57;;;12.30;99.90;;;;;;5030313;28;20438;-71
2022/10/19 01:02:20;;;;;;;19.87;7.80;;;12.30;99.90;;;;;;5032411;28;20426;-72
2022/10/19 01:04:49;;;;;;;26.10;9.37;;;12.40;99.90;;;;;;5032096;28;20421;-71
2022/10/19 01:07:14;;;;;;;37.27;10.37;;;12.50;99.90;;;;;;5032570;28;20268;-71
2022/10/19 01:09:40;;;;;;;33.20;9.50;;;12.40;99.90;;;;;;5031932;28;20501;-73
2022/10/19 01:12:31;;;;;;;10.97;6.50;;;12.30;99.90;;;;;;5014713;28;20508;-71
2022/10/19 01:15:31;;;;;;;6.67;5.80;;;12.10;99.90;;;;;;5032145;28;20498;-72
2022/10/19 01:18:41;;;;;;;6.93;6.13;;;12.00;99.90;;;;;;5032014;28;20410;-72
2022/10/19 01:21:25;;;;;;;7.23;6.27;;;11.80;99.90;;;;;;5003740;28;20423;-71
2022/10/19 01:24:12;;;;;;;15.17;5.97;;;11.70;99.90;;;;;;5031242;28;20418;-72
2022/10/19 01:26:57;;;;;;;25.50;6.90;;;11.70;99.90;;;;;;5012957;28;20410;-71
2022/10/19 01:30:01;;;;;;;26.27;7.50;;;11.70;99.90;;;;;;5012685;28;20457;-71
2022/10/19 01:32:57;;;;;;;32.77;8.90;;;11.40;99.90;;;;;;5012872;28;20760;-71
2022/10/19 01:35:31;;;;;;;44.17;9.67;;;11.30;99.90;;;;;;5012653;28;20412;-72
2022/10/19 01:38:20;;;;;;;23.63;8.87;;;11.30;99.90;;;;;;5011741;28;20392;-72
2022/10/19 01:40:46;;;;;;;47.40;8.77;;;11.30;99.90;;;;;;5012171;28;20746;-71
2022/10/19 01:43:20;;;;;;;47.63;10.13;;;11.20;99.90;;;;;;5012885;28;20411;-71
2022/10/19 01:45:58;;;;;;;22.17;9.17;;;11.10;99.90;;;;;;5011684;28;20212;-73
2022/10/19 01:48:34;;;;;;;23.27;9.87;;;11.00;99.90;;;;;;5024899;28;20422;-71
2022/10/19 01:51:01;;;;;;;10.70;9.10;;;11.00;99.90;;;;;;5031382;28;20485;-71
2022/10/19 01:53:30;;;;;;;17.23;9.83;;;11.20;99.90;;;;;;5032195;28;20418;-71
2022/10/19 01:55:57;;;;;;;22.73;10.17;;;11.30;99.90;;;;;;5013072;28;20546;-71
2022/10/19 01:58:30;;;;;;;43.20;9.50;;;11.50;99.90;;;;;;5031459;28;20847;-71
2022/10/19 02:01:01;;;;;;;9.10;8.20;;;11.60;99.90;;;;;;5031752;28;20523;-72
2022/10/19 02:03:27;;;;;;;8.87;7.97;;;11.70;99.90;;;;;;5012935;28;20431;-71
2022/10/19 02:05:55;;;;;;;16.83;7.33;;;11.80;99.90;;;;;;5030671;28;20931;-72
2022/10/19 02:08:35;;;;;;;13.37;8.10;;;11.90;99.90;;;;;;5032228;28;20398;-71
2022/10/19 02:11:02;;;;;;;8.47;7.67;;;12.10;99.90;;;;;;5031202;28;20451;-71
2022/10/19 02:13:29;;;;;;;22.43;8.70;;;12.20;99.90;;;;;;5032003;28;20432;-71
2022/10/19 02:16:00;;;;;;;11.23;7.40;;;12.20;99.90;;;;;;5013365;28;20515;-72
2022/10/19 02:18:34;;;;;;;8.73;8.03;;;12.30;99.90;;;;;;5032121;28;20443;-71
2022/10/19 02:21:02;;;;;;;31.23;8.83;;;12.30;99.90;;;;;;5032772;28;20494;-72
2022/10/19 02:23:28;;;;;;;19.10;8.67;;;12.30;99.90;;;;;;5035951;28;20903;-71
2022/10/19 02:25:54;;;;;;;23.07;8.30;;;12.30;99.90;;;;;;5033407;28;20474;-71
2022/10/19 02:28:21;;;;;;;20.73;8.43;;;12.30;99.90;;;;;;5035887;28;20170;-72
2022/10/19 02:30:47;;;;;;;39.87;8.10;;;12.30;99.90;;;;;;5033827;28;20455;-74
2022/10/19 02:33:14;;;;;;;37.90;8.90;;;12.20;99.90;;;;;;5035756;28;20409;-71
2022/10/19 02:35:39;;;;;;;21.80;9.40;;;12.20;99.90;;;;;;5035865;28;20412;-71
2022/10/19 02:38:09;;;;;;;9.90;8.60;;;12.10;99.90;;;;;;5033631;28;20413;-72
2022/10/19 02:40:38;;;;;;;65.47;10.67;;;12.10;99.90;;;;;;5015908;28;20182;-71
2022/10/19 02:43:10;;;;;;;47.63;8.90;;;12.20;99.90;;;;;;5015109;28;20410;-72
2022/10/19 02:45:42;;;;;;;30.80;8.30;;;12.20;99.90;;;;;;5016035;28;20516;-72
2022/10/19 02:48:16;;;;;;;31.37;8.90;;;12.30;99.90;;;;;;5015020;28;21058;-72
2022/10/19 02:50:48;;;;;;;8.33;7.73;;;12.30;99.90;;;;;;5015727;28;20536;-71
2022/10/19 02:53:15;;;;;;;8.27;7.47;;;12.30;99.90;;;;;;5015565;28;20496;-72
2022/10/19 02:55:41;;;;;;;9.43;8.03;;;12.40;99.90;;;;;;5008414;28;20443;-70
2022/10/19 02:58:07;;;;;;;18.43;7.70;;;12.40;99.90;;;;;;4963300;28;20426;-70
2022/10/19 03:00:33;;;;;;;9.20;8.17;;;12.50;99.90;;;;;;5015433;28;20475;-70
2022/10/19 03:02:59;;;;;;;7.87;7.23;;;12.50;99.90;;;;;;5014932;28;20440;-70
2022/10/19 03:05:25;;;;;;;14.40;7.60;;;12.50;99.90;;;;;;5015497;28;20670;-70
2022/10/19 03:07:51;;;;;;;8.60;7.70;;;12.50;99.90;;;;;;5032030;28;20507;-71
2022/10/19 03:10:16;;;;;;;9.93;8.00;;;12.60;99.90;;;;;;5035162;28;20287;-70
2022/10/19 03:12:42;;;;;;;8.43;7.63;;;12.60;99.90;;;;;;5034943;28;20530;-70
2022/10/19 03:15:13;;;;;;;13.80;8.10;;;12.60;99.90;;;;;;5033991;28;20178;-69
2022/10/19 03:17:39;;;;;;;8.17;7.37;;;12.60;99.90;;;;;;5017385;28;20174;-70
2022/10/19 03:20:05;;;;;;;7.90;7.13;;;12.70;99.90;;;;;;5032376;28;20479;-69
2022/10/19 03:22:30;;;;;;;14.77;7.03;;;12.70;99.90;;;;;;5033327;28;20190;-69
2022/10/19 03:24:56;;;;;;;7.30;6.00;;;12.70;99.90;;;;;;5012597;28;20432;-70
2022/10/19 03:27:22;;;;;;;7.40;6.80;;;12.70;99.90;;;;;;5034797;28;20178;-69
2022/10/19 03:29:48;;;;;;;13.00;6.07;;;12.70;99.90;;;;;;4999542;28;20215;-72
2022/10/19 03:32:13;;;;;;;5.67;5.17;;;12.70;99.90;;;;;;5033016;28;20186;-70
2022/10/19 03:34:39;;;;;;;6.50;5.50;;;12.70;99.90;;;;;;5034684;28;20278;-69
2022/10/19 03:37:05;;;;;;;6.13;5.63;;;12.60;99.90;;;;;;5032946;28;20620;-70
2022/10/19 03:39:31;;;;;;;8.77;8.20;;;12.60;99.90;;;;;;5033934;28;20201;-69
2022/10/19 03:41:56;;;;;;;6.27;5.67;;;12.60;99.90;;;;;;5034003;28;20450;-70
2022/10/19 03:44:22;;;;;;;6.80;6.20;;;12.60;99.90;;;;;;5034433;28;20260;-69
2022/10/19 03:46:50;;;;;;;14.07;4.17;;;12.50;99.90;;;;;;5029695;28;20635;-72
2022/10/19 03:49:16;;;;;;;7.40;6.90;;;12.40;99.90;;;;;;5033452;28;20453;-70
2022/10/19 03:51:41;;;;;;;14.40;5.97;;;12.40;99.90;;;;;;5033699;28;20229;-70
2022/10/19 03:54:11;;;;;;;15.73;5.27;;;12.30;99.90;;;;;;5032794;28;20186;-71
2022/10/19 03:56:37;;;;;;;8.30;7.50;;;12.00;99.90;;;;;;5033472;28;20188;-70
2022/10/19 03:59:04;;;;;;;7.03;6.53;;;11.90;99.90;;;;;;5015718;28;20563;-71
2022/10/19 04:01:39;;;;;;;7.20;6.60;;;12.00;99.90;;;;;;5033433;28;20193;-72
2022/10/19 04:04:15;;;;;;;6.60;5.90;;;12.00;99.90;;;;;;5013558;28;20518;-71
2022/10/19 04:06:43;;;;;;;5.20;4.80;;;12.10;99.90;;;;;;5014040;28;20454;-72
2022/10/19 04:09:12;;;;;;;6.00;5.70;;;12.10;99.90;;;;;;5026255;28;20463;-72
2022/10/19 04:11:38;;;;;;;5.63;5.23;;;12.10;99.90;;;;;;5033588;28;20909;-71
2022/10/19 04:14:04;;;;;;;5.87;5.47;;;12.20;99.90;;;;;;5033178;28;20430;-72
2022/10/19 04:16:31;;;;;;;8.07;7.57;;;12.30;99.90;;;;;;5016093;28;20909;-72
2022/10/19 04:18:57;;;;;;;9.00;6.23;;;12.40;99.90;;;;;;5033017;28;20412;-73
2022/10/19 04:21:30;;;;;;;8.57;7.70;;;12.40;99.90;;;;;;5033052;28;20435;-70
2022/10/19 04:24:00;;;;;;;9.10;7.67;;;12.30;99.90;;;;;;5027517;28;20535;-74
2022/10/19 04:26:26;;;;;;;7.63;7.00;;;12.40;99.90;;;;;;5033901;28;20455;-71
2022/10/19 04:28:52;;;;;;;6.30;5.80;;;12.40;99.90;;;;;;5033356;28;20394;-74
2022/10/19 04:31:17;;;;;;;9.17;8.47;;;12.50;99.90;;;;;;5033200;28;20827;-72
2022/10/19 04:33:44;;;;;;;7.00;6.30;;;12.50;99.90;;;;;;5029871;28;20182;-72
2022/10/19 04:36:11;;;;;;;8.60;8.00;;;12.60;99.90;;;;;;5002560;28;20185;-71
2022/10/19 04:38:37;;;;;;;9.10;7.00;;;12.60;99.90;;;;;;5033317;28;20436;-72
2022/10/19 04:41:13;;;;;;;8.63;7.83;;;12.60;99.90;;;;;;5032429;28;20983;-72
2022/10/19 04:43:39;;;;;;;7.17;6.53;;;12.60;99.90;;;;;;5032005;28;20464;-71
2022/10/19 04:46:14;;;;;;;6.83;6.30;;;12.60;99.90;;;;;;5030267;28;20428;-72
2022/10/19 04:48:40;;;;;;;8.00;7.43;;;12.70;99.90;;;;;;5015885;28;20423;-71
2022/10/19 04:51:06;;;;;;;7.53;6.90;;;12.60;99.90;;;;;;5012292;28;20466;-72
2022/10/19 04:53:33;;;;;;;7.90;6.60;;;12.60;99.90;;;;;;4996138;28;20827;-71
2022/10/19 04:55:59;;;;;;;17.30;7.57;;;12.60;99.90;;;;;;5016989;28;20429;-71
2022/10/19 04:58:26;;;;;;;12.73;7.00;;;12.60;99.90;;;;;;5032654;28;20441;-73
2022/10/19 05:00:51;;;;;;;12.77;9.43;;;12.60;99.90;;;;;;5032099;28;20808;-71
2022/10/19 05:03:17;;;;;;;15.53;7.73;;;12.60;99.90;;;;;;5032248;28;20420;-71
2022/10/19 05:05:43;;;;;;;9.20;8.50;;;12.50;99.90;;;;;;4980582;28;20288;-71
2022/10/19 05:08:10;;;;;;;33.27;7.60;;;12.50;99.90;;;;;;5012217;28;20868;-71
2022/10/19 05:10:36;;;;;;;10.83;8.87;;;12.50;99.90;;;;;;5012072;28;20199;-71
2022/10/19 05:13:02;;;;;;;10.10;7.77;;;12.40;99.90;;;;;;5012522;28;20425;-71
2022/10/19 05:15:28;;;;;;;19.50;9.17;;;12.40;99.90;;;;;;5012432;28;20432;-71
2022/10/19 05:17:55;;;;;;;9.57;8.53;;;12.40;99.90;;;;;;5012871;28;20430;-72
2022/10/19 05:20:23;;;;;;;9.53;6.43;;;12.30;99.90;;;;;;5009320;28;20430;-72
2022/10/19 05:22:49;;;;;;;11.20;10.17;;;12.30;99.90;;;;;;4946007;28;20418;-71
2022/10/19 05:25:15;;;;;;;7.63;6.93;;;12.30;99.90;;;;;;5012078;28;20418;-72
2022/10/19 05:27:40;;;;;;;28.10;6.97;;;12.20;99.90;;;;;;5013032;28;20193;-72
2022/10/19 05:30:07;;;;;;;8.83;7.93;;;12.20;99.90;;;;;;4993657;28;20450;-73
2022/10/19 05:32:33;;;;;;;6.60;6.10;;;12.30;99.90;;;;;;4959529;28;20203;-72
2022/10/19 05:34:59;;;;;;;7.20;6.50;;;12.30;99.90;;;;;;5011988;28;20414;-75
2022/10/19 05:37:25;;;;;;;6.63;5.67;;;12.30;99.90;;;;;;5012813;28;20419;-73
2022/10/19 05:39:52;;;;;;;7.53;7.00;;;12.20;99.90;;;;;;5012843;28;20426;-73
2022/10/19 05:42:18;;;;;;;22.40;6.57;;;12.30;99.90;;;;;;5011910;28;20424;-72
2022/10/19 05:44:44;;;;;;;7.13;6.53;;;12.30;99.90;;;;;;5012560;28;20537;-73
2022/10/19 05:47:09;;;;;;;8.10;7.60;;;12.30;99.90;;;;;;5009578;28;20186;-73
2022/10/19 05:49:35;;;;;;;9.63;6.20;;;12.30;99.90;;;;;;4995023;28;20200;-73
2022/10/19 05:52:01;;;;;;;8.40;7.20;;;12.20;99.90;;;;;;5009523;28;20634;-74
2022/10/19 05:54:26;;;;;;;14.10;7.20;;;12.20;99.90;;;;;;5012454;28;20586;-73
2022/10/19 05:56:52;;;;;;;11.43;5.13;;;12.20;99.90;;;;;;4994955;28;20217;-73
2022/10/19 05:59:20;;;;;;;8.57;7.70;;;12.20;99.90;;;;;;5011629;28;20458;-73
2022/10/19 06:01:46;;;;;;;14.47;7.47;;;12.30;99.90;;;;;;5011042;28;20183;-72
2022/10/19 06:04:13;;;;;;;7.47;6.37;;;12.20;99.90;;;;;;5011926;28;20421;-72
2022/10/19 06:06:40;;;;;;;8.50;6.00;;;12.20;99.90;;;;;;5020305;28;20459;-72
2022/10/19 06:09:06;;;;;;;8.80;6.30;;;12.20;99.90;;;;;;5012082;28;20461;-71
2022/10/19 06:11:36;;;;;;;32.57;7.30;;;12.20;99.90;;;;;;5025311;28;20468;-72
2022/10/19 06:14:05;;;;;;;28.70;7.67;;;12.20;99.90;;;;;;5030114;28;20467;-73
2022/10/19 06:16:31;;;;;;;9.23;6.83;;;12.10;99.90;;;;;;5029497;28;20467;-72
2022/10/19 06:18:58;;;;;;;16.33;6.67;;;12.10;99.90;;;;;;5026879;28;20506;-72
2022/10/19 06:21:27;;;;;;;22.27;7.07;;;12.10;99.90;;;;;;5028901;28;20427;-66
2022/10/19 06:23:59;;;;;;;9.90;7.10;;;12.10;99.90;;;;;;5032308;28;20402;-66
2022/10/19 06:26:25;;;;;;;29.70;7.50;;;12.00;99.90;;;;;;5032537;28;20427;-66
2022/10/19 06:28:54;;;;;;;7.37;6.73;;;11.90;99.90;;;;;;5032325;28;20421;-67
2022/10/19 06:31:20;;;;;;;16.20;7.43;;;11.90;99.90;;;;;;5031731;28;20424;-67
2022/10/19 06:33:46;;;;;;;30.07;8.93;;;11.80;99.90;;;;;;5032393;28;20436;-67
2022/10/19 06:36:14;;;;;;;12.80;7.13;;;11.80;99.90;;;;;;5031472;28;20186;-67
2022/10/19 06:38:41;;;;;;;23.60;8.30;;;11.70;99.90;;;;;;5032310;28;20428;-67
2022/10/19 06:41:07;;;;;;;36.40;7.77;;;11.60;99.90;;;;;;5030788;28;20441;-67
2022/10/19 06:43:34;;;;;;;17.33;7.87;;;11.60;99.90;;;;;;5031534;28;20428;-66
2022/10/19 06:46:07;;;;;;;17.23;7.57;;;11.50;99.90;;;;;;5031711;28;20448;-67
2022/10/19 06:48:33;;;;;;;10.60;9.53;;;11.40;99.90;;;;;;5013303;28;20429;-67
2022/10/19 06:51:00;;;;;;;32.97;8.73;;;11.40;99.90;;;;;;5021871;28;20464;-66
2022/10/19 06:53:27;;;;;;;15.63;7.60;;;11.40;99.90;;;;;;5011268;28;20940;-66
2022/10/19 06:55:57;;;;;;;15.77;7.10;;;11.50;99.90;;;;;;5032049;28;20423;-66
2022/10/19 06:58:24;;;;;;;10.10;8.00;;;11.40;99.90;;;;;;5031434;28;20756;-66
2022/10/19 07:01:09;;;;;;;37.70;11.07;;;11.40;99.90;;;;;;5032224;28;20430;-66
2022/10/19 07:03:35;;;;;;;12.07;6.60;;;11.30;99.90;;;;;;5030925;28;20449;-67
2022/10/19 07:06:04;;;;;;;24.47;6.73;;;11.30;99.90;;;;;;5028435;28;20468;-67
2022/10/19 07:08:31;;;;;;;9.60;6.57;;;11.30;99.90;;;;;;5015964;28;20390;-67
2022/10/19 07:11:02;;;;;;;7.60;6.90;;;11.30;99.90;;;;;;5013413;28;20466;-66
2022/10/19 07:13:29;;;;;;;13.93;6.97;;;11.20;99.90;;;;;;5015312;28;20471;-65
2022/10/19 07:16:07;;;;;;;9.73;6.13;;;11.20;99.90;;;;;;5015448;28;20425;-65
2022/10/19 07:18:35;;;;;;;8.33;7.53;;;11.20;99.90;;;;;;5015113;28;20420;-65
2022/10/19 07:21:04;;;;;;;8.03;7.23;;;11.20;99.90;;;;;;4997869;28;20425;-65
2022/10/19 07:23:31;;;;;;;13.07;11.73;;;11.20;99.90;;;;;;5014541;28;20437;-66
2022/10/19 07:26:02;;;;;;;9.90;8.97;;;11.20;99.90;;;;;;5015374;28;20471;-67
2022/10/19 07:28:29;;;;;;;24.97;8.20;;;11.20;99.90;;;;;;5015476;28;20422;-67
2022/10/19 07:30:55;;;;;;;8.80;8.00;;;11.20;99.90;;;;;;5015381;28;20456;-66
2022/10/19 07:33:21;;;;;;;8.67;7.43;;;11.10;99.90;;;;;;5014417;28;20417;-67
2022/10/19 07:35:47;;;;;;;7.57;6.70;;;11.20;99.90;;;;;;4997672;28;20426;-67
2022/10/19 07:38:12;;;;;;;28.90;11.73;;;11.20;99.90;;;;;;5014334;28;20186;-67
2022/10/19 07:40:38;;;;;;;10.20;9.20;;;11.10;99.90;;;;;;5015508;28;20517;-67
2022/10/19 07:43:04;;;;;;;8.73;8.00;;;11.10;99.90;;;;;;5014654;28;20582;-67
2022/10/19 07:45:30;;;;;;;8.40;7.80;;;11.10;99.90;;;;;;5014768;28;20192;-67
2022/10/19 07:47:57;;;;;;;13.83;7.10;;;11.10;99.90;;;;;;5015142;28;20178;-67
2022/10/19 07:50:24;;;;;;;8.53;7.60;;;11.10;99.90;;;;;;5014361;28;21335;-67
2022/10/19 07:52:53;;;;;;;7.60;7.00;;;11.00;99.90;;;;;;5013278;28;20480;-67
2022/10/19 07:55:18;;;;;;;9.77;8.03;;;11.00;99.90;;;;;;5013625;28;20433;-67
2022/10/19 07:57:48;;;;;;;10.50;7.30;;;11.00;99.90;;;;;;5014135;28;20512;-67
2022/10/19 08:00:16;;;;;;;9.20;8.37;;;11.00;99.90;;;;;;5013658;28;20186;-67
2022/10/19 08:02:42;;;;;;;11.30;7.73;;;10.90;99.90;;;;;;5013192;28;20420;-67
2022/10/19 08:05:08;;;;;;;8.53;7.47;;;10.90;99.90;;;;;;5013411;28;20789;-67
2022/10/19 08:07:34;;;;;;;18.83;8.03;;;10.90;99.90;;;;;;5013130;28;20471;-67
2022/10/19 08:10:00;;;;;;;8.43;7.73;;;11.00;99.90;;;;;;5012898;28;20481;-67
2022/10/19 08:12:25;;;;;;;8.53;7.73;;;10.90;99.90;;;;;;5012725;28;20278;-67
2022/10/19 08:14:52;;;;;;;8.00;7.20;;;10.90;99.90;;;;;;5014284;28;20618;-67
2022/10/19 08:17:20;;;;;;;10.80;8.20;;;11.00;99.90;;;;;;5012793;28;20174;-67
2022/10/19 08:19:46;;;;;;;8.57;7.87;;;11.20;99.90;;;;;;5014186;28;20404;-67
2022/10/19 08:22:12;;;;;;;13.40;9.17;;;11.20;99.90;;;;;;5013512;28;20411;-67
2022/10/19 08:24:38;;;;;;;10.13;9.13;;;11.20;99.90;;;;;;5014613;28;20187;-67
2022/10/19 08:27:03;;;;;;;11.33;10.10;;;11.20;99.90;;;;;;5014420;28;20437;-67
2022/10/19 08:29:29;;;;;;;11.20;8.77;;;11.20;99.90;;;;;;5013583;28;20248;-67
2022/10/19 08:31:55;;;;;;;8.70;7.90;;;11.10;99.90;;;;;;5014121;28;20717;-67
2022/10/19 08:34:20;;;;;;;10.30;9.40;;;10.90;99.90;;;;;;5013628;28;20206;-67
2022/10/19 08:36:46;;;;;;;10.60;9.60;;;11.00;99.90;;;;;;5014158;28;20183;-67
2022/10/19 08:39:13;;;;;;;11.07;8.57;;;11.10;99.90;;;;;;5013232;28;20234;-67
2022/10/19 08:41:38;;;;;;;10.17;9.07;;;11.20;99.90;;;;;;5013232;28;20182;-67
2022/10/19 08:44:14;;;;;;;10.33;9.33;;;11.30;99.90;;;;;;4994248;28;20433;-67
2022/10/19 08:46:46;;;;;;;11.80;9.57;;;11.40;99.90;;;;;;4992930;28;20218;-67
2022/10/19 08:49:17;;;;;;;13.53;11.37;;;11.50;99.90;;;;;;4993603;28;20420;-67
2022/10/19 08:51:46;;;;;;;10.47;9.67;;;11.50;99.90;;;;;;4994454;28;20413;-67
2022/10/19 08:54:16;;;;;;;9.83;9.00;;;11.60;99.90;;;;;;4993602;28;20396;-67
2022/10/19 08:56:48;;;;;;;9.40;8.60;;;11.70;99.90;;;;;;4993944;28;20817;-67
2022/10/19 08:59:29;;;;;;;9.03;8.33;;;11.90;99.90;;;;;;4993663;28;20410;-67
2022/10/19 09:02:18;;;;;;;9.80;8.80;;;12.10;99.90;;;;;;4994207;28;20403;-67
2022/10/19 09:04:56;;;;;;;9.77;8.40;;;12.40;99.90;;;;;;4993833;28;20892;-67
2022/10/19 09:07:33;;;;;;;8.83;7.90;;;12.60;99.90;;;;;;5007337;28;20454;-67
2022/10/19 09:10:16;;;;;;;8.63;7.90;;;12.80;99.90;;;;;;4946693;28;20463;-67
2022/10/19 09:13:05;;;;;;;8.73;7.93;;;12.90;99.90;;;;;;5021799;28;20439;-67
2022/10/19 09:15:42;;;;;;;9.63;8.73;;;13.10;99.90;;;;;;5028604;28;20438;-67
2022/10/19 09:18:31;;;;;;;9.33;8.50;;;13.30;99.90;;;;;;5028046;28;20450;-70
2022/10/19 09:21:14;;;;;;;9.03;8.20;;;13.70;99.90;;;;;;5033270;28;20452;-67
2022/10/19 09:23:50;;;;;;;9.73;8.30;;;13.90;99.90;;;;;;5033100;28;20417;-67
2022/10/19 09:26:18;;;;;;;12.57;11.47;;;14.20;99.90;;;;;;5031644;28;20460;-67
2022/10/19 09:29:15;;;;;;;10.70;9.20;;;14.50;99.90;;;;;;5032694;28;20414;-67
2022/10/19 09:31:44;;;;;;;18.13;9.70;;;14.70;99.90;;;;;;5033154;28;20409;-67
2022/10/19 09:34:37;;;;;;;9.10;8.23;;;15.10;99.90;;;;;;5032330;28;20795;-67
2022/10/19 09:37:02;;;;;;;9.90;9.00;;;15.40;99.90;;;;;;5033025;28;20403;-67
2022/10/19 09:39:30;;;;;;;9.13;8.33;;;15.70;99.90;;;;;;5032224;28;20426;-67
2022/10/19 09:42:06;;;;;;;10.33;9.33;;;16.00;99.90;;;;;;5032834;28;20189;-67
2022/10/19 09:44:31;;;;;;;10.13;8.50;;;16.40;99.90;;;;;;5031603;28;20463;-67
2022/10/19 09:47:00;;;;;;;12.20;7.27;;;16.60;99.90;;;;;;5032806;28;20448;-67
2022/10/19 09:49:44;;;;;;;11.63;10.73;;;16.80;99.90;;;;;;5014495;28;20633;-67
2022/10/19 09:52:32;;;;;;;8.83;7.07;;;17.00;99.90;;;;;;5032497;28;20427;-70
2022/10/19 09:55:24;;;;;;;8.90;8.10;;;17.10;99.90;;;;;;5032863;28;20396;-67
2022/10/19 09:57:59;;;;;;;7.90;6.90;;;17.20;99.90;;;;;;5032159;28;20978;-67
2022/10/19 10:00:33;;;;;;;7.47;6.87;;;17.50;99.90;;;;;;5032024;28;20436;-67
2022/10/19 10:02:59;;;;;;;6.70;4.77;;;17.80;99.90;;;;;;5033081;28;20390;-67
2022/10/19 10:05:45;;;;;;;8.93;5.60;;;18.10;99.90;;;;;;5032021;28;20832;-67
2022/10/19 10:08:16;;;;;;;5.50;5.10;;;18.40;99.90;;;;;;5032411;28;20189;-67
2022/10/19 10:10:52;;;;;;;6.87;5.67;;;18.60;99.70;;;;;;5032654;28;20800;-67
2022/10/19 10:13:24;;;;;;;6.47;5.40;;;18.90;99.90;;;;;;5031125;28;20523;-67
2022/10/19 10:16:02;;;;;;;6.37;5.77;;;19.20;98.30;;;;;;5031500;28;20421;-67
2022/10/19 10:18:28;;;;;;;7.13;6.63;;;19.40;98.20;;;;;;5031902;28;20397;-67
2022/10/19 10:20:59;;;;;;;5.80;4.30;;;19.60;96.40;;;;;;5032683;28;20760;-67
2022/10/19 10:23:30;;;;;;;7.20;6.50;;;19.80;95.90;;;;;;5031849;28;20409;-67
2022/10/19 10:25:57;;;;;;;5.43;4.00;;;19.90;94.30;;;;;;5032439;28;20397;-67
2022/10/19 10:28:25;;;;;;;4.20;3.50;;;20.20;94.30;;;;;;5031409;28;20934;-67
2022/10/19 10:31:03;;;;;;;4.80;3.30;;;20.40;94.00;;;;;;5032228;28;20452;-67
2022/10/19 10:33:31;;;;;;;3.63;3.33;;;20.50;91.50;;;;;;5031778;28;20402;-67
2022/10/19 10:36:07;;;;;;;7.00;4.90;;;20.50;91.10;;;;;;5032291;28;20468;-67
2022/10/19 10:38:57;;;;;;;4.47;4.17;;;20.70;91.60;;;;;;5031746;28;20732;-67
2022/10/19 10:41:27;;;;;;;5.13;4.70;;;20.90;90.80;;;;;;5033029;28;20421;-67
2022/10/19 10:44:02;;;;;;;6.30;3.90;;;20.90;90.10;;;;;;5036049;28;20436;-67
2022/10/19 10:46:34;;;;;;;4.10;3.80;;;21.00;89.80;;;;;;5017599;28;20820;-67
2022/10/19 10:49:05;;;;;;;4.00;3.60;;;21.20;89.70;;;;;;5034850;28;20510;-67
2022/10/19 10:51:44;;;;;;;3.90;3.60;;;21.30;87.50;;;;;;5035337;28;20401;-68
2022/10/19 10:54:30;;;;;;;4.70;4.00;;;21.40;87.20;;;;;;5035957;28;20417;-68
2022/10/19 10:57:12;;;;;;;4.70;4.20;;;21.40;87.00;;;;;;5035904;28;20441;-68
2022/10/19 11:00:06;;;;;;;4.27;3.97;;;21.40;86.20;;;;;;5035508;28;20409;-69
2022/10/19 11:02:38;;;;;;;4.97;4.47;;;21.40;85.10;;;;;;5035122;28;20467;-68
2022/10/19 11:05:13;;;;;;;5.23;4.83;;;21.40;86.20;;;;;;5035664;28;20411;-68
2022/10/19 11:07:44;;;;;;;6.00;5.40;;;21.40;85.70;;;;;;5035701;28;20472;-68
2022/10/19 11:10:22;;;;;;;7.33;4.80;;;21.40;85.80;;;;;;5035118;28;20893;-68
2022/10/19 11:13:03;;;;;;;4.40;4.10;;;21.50;85.50;;;;;;5033891;28;20464;-68
2022/10/19 11:15:50;;;;;;;4.93;4.43;;;21.50;87.00;;;;;;5034664;28;20829;-68
2022/10/19 11:18:39;;;;;;;5.47;4.97;;;21.60;85.80;;;;;;5000751;28;20417;-68
2022/10/19 11:21:16;;;;;;;4.70;3.90;;;21.70;81.50;;;;;;5035477;28;20512;-68
2022/10/19 11:23:57;;;;;;;4.83;4.10;;;21.70;83.40;;;;;;5035085;28;20756;-68
2022/10/19 11:26:59;;;;;;;4.13;3.63;;;21.60;82.60;;;;;;5034445;28;20755;-68
2022/10/19 11:29:43;;;;;;;3.73;3.27;;;21.60;83.00;;;;;;5034290;28;20959;-68
2022/10/19 11:32:19;;;;;;;3.80;3.47;;;21.70;86.80;;;;;;5035436;28;20433;-68
2022/10/19 11:34:51;;;;;;;4.87;4.53;;;21.60;84.10;;;;;;5035151;28;20397;-68
2022/10/19 11:37:27;;;;;;;8.83;3.97;;;21.50;84.40;;;;;;5034795;28;20417;-71
2022/10/19 11:40:17;;;;;;;4.13;3.83;;;21.30;83.60;;;;;;5035154;28;20442;-68
2022/10/19 11:43:12;;;;;;;4.10;3.80;;;21.20;87.40;;;;;;5021093;28;20437;-68
2022/10/19 11:45:58;;;;;;;5.70;4.03;;;21.30;87.30;;;;;;5014724;28;20418;-68
2022/10/19 11:48:48;;;;;;;3.53;3.27;;;21.30;86.50;;;;;;5014664;28;20402;-68
2022/10/19 11:51:29;;;;;;;6.77;3.70;;;21.30;86.10;;;;;;5015182;28;20477;-68
2022/10/19 11:54:12;;;;;;;6.23;5.83;;;21.20;86.70;;;;;;4997639;28;20449;-68
2022/10/19 11:56:52;;;;;;;5.33;3.50;;;21.20;86.40;;;;;;5014504;28;20413;-68
2022/10/19 11:59:41;;;;;;;5.03;4.53;;;21.10;86.20;;;;;;5014411;28;20402;-69
2022/10/19 12:02:29;;;;;;;4.50;3.47;;;21.00;86.10;;;;;;5014843;28;20406;-68
2022/10/19 12:04:54;;;;;;;7.87;7.20;;;20.90;87.40;;;;;;5014865;28;20456;-68
2022/10/19 12:07:35;;;;;;;4.83;3.70;;;20.80;86.30;;;;;;5027490;28;20457;-69
2022/10/19 12:10:27;;;;;;;4.73;4.20;;;20.60;86.10;;;;;;5033471;28;20289;-71
2022/10/19 12:13:00;;;;;;;3.77;3.47;;;20.30;87.20;;;;;;5014381;28;20449;-68
2022/10/19 12:15:32;;;;;;;6.23;3.70;;;20.10;89.90;;;;;;5013834;28;20414;-68
2022/10/19 12:18:19;;;;;;;4.30;4.00;;;19.90;91.00;;;;;;5025071;28;20864;-68
2022/10/19 12:20:51;;;;;;;5.80;4.00;;;19.80;91.30;;;;;;5034471;28;20393;-68
2022/10/19 12:23:36;;;;;;;5.47;4.97;;;19.70;91.50;;;;;;5034245;28;20417;-68
2022/10/19 12:26:07;;;;;;;5.53;5.03;;;19.60;91.70;;;;;;5034472;28;20421;-68
2022/10/19 12:28:43;;;;;;;4.37;4.07;;;19.50;91.90;;;;;;5033575;28;20421;-68
2022/10/19 12:31:10;;;;;;;4.10;3.90;;;19.40;91.80;;;;;;5034054;28;20452;-67
2022/10/19 12:33:35;;;;;;;4.60;4.20;;;19.30;92.60;;;;;;5032996;28;20417;-68
2022/10/19 12:36:23;;;;;;;5.80;5.33;;;19.20;92.20;;;;;;5033696;28;20408;-68
2022/10/19 12:39:12;;;;;;;4.40;4.00;;;19.10;92.60;;;;;;5033745;28;20569;-68
2022/10/19 12:41:57;;;;;;;5.37;3.87;;;19.00;92.60;;;;;;5015598;28;20445;-68
2022/10/19 12:44:32;;;;;;;4.33;4.10;;;19.00;93.40;;;;;;5033172;28;20515;-68
2022/10/19 12:47:36;;;;;;;5.10;4.70;;;18.90;93.30;;;;;;5033108;28;20494;-68
2022/10/19 12:50:02;;;;;;;4.50;4.20;;;18.70;93.70;;;;;;4972575;28;20502;-68
2022/10/19 12:52:37;;;;;;;4.70;3.80;;;18.70;94.10;;;;;;4972046;28;20474;-68
2022/10/19 12:55:25;;;;;;;4.20;3.90;;;18.60;94.00;;;;;;4972656;28;20680;-68
2022/10/19 12:58:20;;;;;;;4.10;3.80;;;18.60;94.20;;;;;;4972651;28;20404;-68
2022/10/19 13:01:04;;;;;;;4.17;3.73;;;18.50;94.60;;;;;;4972525;28;20905;-68
2022/10/19 13:03:34;;;;;;;3.83;3.43;;;18.50;94.40;;;;;;4971302;28;20415;-68
2022/10/19 13:06:05;;;;;;;4.47;4.17;;;18.40;94.60;;;;;;4972247;28;22256;-68